Time;durP1;ratioP1;P1;durP2;ratioP2;P2;SDS_P1;SDS_P2;PMS_P1;PMS_P2;Temp;Humidity;BMP_temperature;BMP_pressure;BME280_temperature;BME280_humidity;BME280_pressure;Samples;Min_cycle;Max_cycle;Signal;HPM_P1;HPM_P2
2022/08/15 00:01:14;;;;;;;8.02;3.65;;;24.30;49.50;;;;;;4974558;28;20067;-86
2022/08/15 00:03:59;;;;;;;6.90;3.65;;;24.30;49.50;;;;;;4973846;28;20066;-86
2022/08/15 00:06:41;;;;;;;6.85;3.50;;;24.30;49.80;;;;;;4979424;28;20678;-85
2022/08/15 00:09:18;;;;;;;7.18;3.35;;;24.20;50.00;;;;;;4992714;28;20042;-83
2022/08/15 00:11:46;;;;;;;7.00;3.55;;;24.20;50.10;;;;;;4973184;28;20050;-88
2022/08/15 00:14:21;;;;;;;7.03;3.47;;;24.20;50.30;;;;;;4973909;28;20043;-88
2022/08/15 00:16:48;;;;;;;5.60;3.17;;;24.10;50.30;;;;;;4983110;28;20383;-86
2022/08/15 00:19:17;;;;;;;7.82;3.65;;;24.10;50.30;;;;;;4990348;28;20121;-87
2022/08/15 00:21:47;;;;;;;5.50;3.35;;;24.10;50.50;;;;;;4991557;28;20048;-87
2022/08/15 00:24:16;;;;;;;6.32;3.10;;;24.10;50.60;;;;;;4996398;28;20038;-85
2022/08/15 00:26:43;;;;;;;5.25;3.22;;;24.00;50.70;;;;;;4994655;28;20473;-83
2022/08/15 00:29:11;;;;;;;6.00;3.53;;;24.00;50.70;;;;;;4986327;28;20038;-86
2022/08/15 00:31:37;;;;;;;8.38;3.88;;;24.00;50.80;;;;;;4993439;28;20033;-85
2022/08/15 00:34:03;;;;;;;6.22;2.88;;;24.00;50.80;;;;;;4992128;28;20075;-87
2022/08/15 00:36:30;;;;;;;7.65;3.67;;;23.90;50.80;;;;;;4992465;28;20037;-87
2022/08/15 00:38:57;;;;;;;5.82;3.10;;;23.90;51.00;;;;;;4994290;28;20053;-84
2022/08/15 00:41:41;;;;;;;7.40;3.13;;;23.90;51.10;;;;;;5024153;28;20057;-85
2022/08/15 00:44:33;;;;;;;7.82;3.60;;;23.80;51.20;;;;;;4995768;28;20034;-84
2022/08/15 00:47:05;;;;;;;9.75;3.60;;;23.70;51.60;;;;;;4994244;28;20065;-87
2022/08/15 00:49:33;;;;;;;6.75;3.85;;;23.70;51.70;;;;;;4991077;28;20056;-86
2022/08/15 00:52:06;;;;;;;8.50;4.05;;;23.70;52.00;;;;;;4999693;28;20436;-87
2022/08/15 00:54:43;;;;;;;10.27;4.15;;;23.70;52.50;;;;;;5003485;28;20074;-86
2022/08/15 00:57:16;;;;;;;6.75;3.92;;;23.70;52.50;;;;;;4994080;28;20045;-86
2022/08/15 00:59:47;;;;;;;8.70;4.57;;;23.70;52.60;;;;;;4991754;28;20054;-86
2022/08/15 01:02:16;;;;;;;7.78;4.15;;;23.60;52.70;;;;;;4993515;28;20068;-84
2022/08/15 01:04:42;;;;;;;9.88;4.20;;;23.60;52.60;;;;;;4993213;28;20097;-83
2022/08/15 01:07:10;;;;;;;7.70;4.32;;;23.60;52.80;;;;;;4992252;28;20116;-83
2022/08/15 01:09:36;;;;;;;8.60;4.38;;;23.60;53.30;;;;;;5000419;28;20089;-87
2022/08/15 01:12:07;;;;;;;6.47;3.65;;;23.60;53.30;;;;;;4992522;28;20077;-83
2022/08/15 01:14:36;;;;;;;7.60;3.80;;;23.50;53.30;;;;;;4991395;28;20161;-85
2022/08/15 01:17:04;;;;;;;9.27;4.32;;;23.50;53.40;;;;;;4995512;28;20034;-85
2022/08/15 01:19:38;;;;;;;7.18;3.40;;;23.50;53.80;;;;;;4989227;28;20285;-86
2022/08/15 01:22:21;;;;;;;8.02;4.55;;;23.50;53.70;;;;;;5021029;28;20099;-86
2022/08/15 01:25:14;;;;;;;8.20;4.10;;;23.40;54.00;;;;;;4989192;28;20144;-85
2022/08/15 01:27:49;;;;;;;8.00;3.95;;;23.40;54.10;;;;;;4989606;28;20037;-85
2022/08/15 01:30:18;;;;;;;8.75;4.13;;;23.40;54.40;;;;;;4992776;28;20029;-85
2022/08/15 01:32:46;;;;;;;7.93;4.00;;;23.30;54.70;;;;;;4989457;28;20038;-87
2022/08/15 01:35:13;;;;;;;8.85;4.15;;;23.30;54.90;;;;;;4995342;28;20056;-86
2022/08/15 01:37:41;;;;;;;8.10;4.25;;;23.30;54.90;;;;;;4992848;28;20038;-85
2022/08/15 01:40:39;;;;;;;8.15;4.43;;;23.30;55.10;;;;;;4987733;28;20049;-84
2022/08/15 01:43:08;;;;;;;7.60;4.03;;;23.30;55.50;;;;;;4997274;28;20084;-87
2022/08/15 01:45:35;;;;;;;6.78;3.78;;;23.30;55.60;;;;;;4991533;28;20033;-86
2022/08/15 01:48:17;;;;;;;8.90;4.88;;;23.30;55.70;;;;;;4991728;28;20045;-85
2022/08/15 01:50:49;;;;;;;7.32;4.03;;;23.20;55.90;;;;;;4994996;28;20089;-85
2022/08/15 01:53:24;;;;;;;8.50;4.05;;;23.30;56.00;;;;;;4991138;28;20062;-86
2022/08/15 01:55:49;;;;;;;7.53;4.05;;;23.20;56.00;;;;;;4992465;28;20061;-86
2022/08/15 01:58:15;;;;;;;6.82;4.20;;;23.20;56.20;;;;;;4993497;28;20046;-87
2022/08/15 02:00:51;;;;;;;7.40;4.68;;;23.20;56.10;;;;;;4996802;28;20035;-85
2022/08/15 02:03:17;;;;;;;8.40;4.97;;;23.10;56.30;;;;;;4998654;28;20137;-86
2022/08/15 02:05:43;;;;;;;7.03;4.45;;;23.10;56.40;;;;;;4999239;28;20047;-86
2022/08/15 02:08:08;;;;;;;7.10;4.60;;;23.00;56.50;;;;;;4996110;28;20128;-84
2022/08/15 02:10:34;;;;;;;9.68;4.85;;;23.00;56.80;;;;;;4991650;28;20120;-86
2022/08/15 02:13:00;;;;;;;8.18;4.65;;;23.00;56.80;;;;;;4992540;28;20046;-86
2022/08/15 02:15:26;;;;;;;7.90;4.60;;;22.90;57.00;;;;;;4998520;28;20030;-83
2022/08/15 02:17:51;;;;;;;7.53;4.63;;;22.80;57.60;;;;;;5004692;28;20160;-86
2022/08/15 02:20:18;;;;;;;7.25;4.65;;;22.80;57.70;;;;;;4997976;28;20042;-84
2022/08/15 02:22:44;;;;;;;9.05;5.15;;;22.90;57.90;;;;;;4994138;28;20060;-85
2022/08/15 02:25:10;;;;;;;8.10;4.68;;;22.80;58.30;;;;;;5003597;28;20041;-85
2022/08/15 02:27:37;;;;;;;12.15;4.82;;;22.60;59.10;;;;;;5000607;28;20041;-86
2022/08/15 02:30:14;;;;;;;10.38;4.70;;;22.60;59.20;;;;;;5003128;28;20040;-86
2022/08/15 02:32:40;;;;;;;8.38;4.63;;;22.60;59.60;;;;;;5003690;28;20048;-85
2022/08/15 02:35:08;;;;;;;8.02;5.53;;;22.60;59.80;;;;;;4994950;28;20490;-84
2022/08/15 02:37:34;;;;;;;10.75;5.32;;;22.60;60.20;;;;;;4995140;28;20029;-86
2022/08/15 02:40:00;;;;;;;9.00;5.47;;;22.60;60.60;;;;;;4995288;28;20108;-85
2022/08/15 02:42:26;;;;;;;10.10;5.57;;;22.60;60.90;;;;;;4996126;28;20532;-84
2022/08/15 02:44:52;;;;;;;12.43;5.38;;;22.60;61.50;;;;;;4994507;28;20478;-84
2022/08/15 02:47:19;;;;;;;8.65;5.32;;;22.60;61.40;;;;;;4995183;28;20041;-82
2022/08/15 02:49:45;;;;;;;8.50;5.63;;;22.60;61.70;;;;;;4994096;28;20528;-85
2022/08/15 02:52:12;;;;;;;8.48;5.75;;;22.60;62.00;;;;;;4998100;28;20034;-86
2022/08/15 02:54:38;;;;;;;10.43;5.95;;;22.60;62.40;;;;;;4997976;28;20611;-86
2022/08/15 02:57:06;;;;;;;11.13;5.90;;;22.50;62.70;;;;;;4994091;28;20030;-82
2022/08/15 02:59:32;;;;;;;10.43;5.07;;;22.50;63.10;;;;;;4998589;28;20034;-86
2022/08/15 03:01:59;;;;;;;8.50;5.57;;;22.50;63.20;;;;;;4997444;28;20539;-85
2022/08/15 03:04:25;;;;;;;9.63;5.75;;;22.50;63.50;;;;;;5001995;28;20397;-84
2022/08/15 03:06:53;;;;;;;8.57;5.70;;;22.40;63.70;;;;;;5013965;28;20026;-82
2022/08/15 03:09:21;;;;;;;10.90;6.85;;;22.40;63.80;;;;;;5022292;28;20022;-83
2022/08/15 03:11:47;;;;;;;9.32;5.90;;;22.40;64.40;;;;;;5019534;28;20034;-82
2022/08/15 03:14:16;;;;;;;11.00;5.75;;;22.30;64.70;;;;;;5007358;28;20037;-85
2022/08/15 03:16:45;;;;;;;9.95;6.22;;;22.30;64.80;;;;;;4998523;28;20042;-84
2022/08/15 03:19:16;;;;;;;10.75;6.20;;;22.30;65.30;;;;;;4997219;28;20038;-84
2022/08/15 03:21:43;;;;;;;11.60;6.53;;;22.40;65.40;;;;;;4994995;28;20144;-85
2022/08/15 03:24:09;;;;;;;10.45;6.25;;;22.30;65.80;;;;;;4993812;28;20045;-85
2022/08/15 03:26:36;;;;;;;11.20;6.07;;;22.20;66.20;;;;;;4994727;28;20044;-85
2022/08/15 03:29:03;;;;;;;9.52;6.28;;;22.20;66.40;;;;;;4993270;28;20700;-85
2022/08/15 03:31:29;;;;;;;10.02;6.05;;;22.20;66.80;;;;;;4990176;28;20046;-85
2022/08/15 03:33:55;;;;;;;12.60;6.85;;;22.20;67.00;;;;;;4992055;28;20037;-82
2022/08/15 03:36:23;;;;;;;12.38;7.00;;;22.20;67.50;;;;;;4990524;28;20053;-85
2022/08/15 03:38:49;;;;;;;10.88;6.80;;;22.20;67.80;;;;;;4993711;28;20503;-83
2022/08/15 03:41:16;;;;;;;10.40;6.38;;;22.20;67.90;;;;;;4994825;28;20616;-85
2022/08/15 03:43:44;;;;;;;12.00;7.05;;;22.10;68.00;;;;;;4994529;28;20029;-84
2022/08/15 03:46:13;;;;;;;12.23;7.22;;;22.10;68.20;;;;;;4991715;28;20066;-85
2022/08/15 03:48:42;;;;;;;9.52;6.43;;;22.10;68.30;;;;;;4996024;28;20036;-85
2022/08/15 03:51:10;;;;;;;9.90;6.43;;;22.10;68.60;;;;;;4993307;28;21529;-85
2022/08/15 03:53:49;;;;;;;13.70;7.30;;;22.10;68.70;;;;;;4996029;28;20037;-84
2022/08/15 03:56:19;;;;;;;13.00;7.15;;;22.10;68.80;;;;;;5001029;28;20033;-85
2022/08/15 03:58:45;;;;;;;12.60;7.20;;;22.00;69.20;;;;;;4993696;28;20041;-85
2022/08/15 04:01:15;;;;;;;10.23;6.57;;;22.00;69.50;;;;;;5021946;28;20037;-85
2022/08/15 04:03:41;;;;;;;14.93;7.35;;;21.90;69.70;;;;;;4991634;28;20419;-83
2022/08/15 04:06:12;;;;;;;11.27;7.30;;;21.90;69.80;;;;;;4993764;28;20529;-84
2022/08/15 04:08:37;;;;;;;14.02;7.72;;;21.90;70.00;;;;;;5002572;28;20149;-82
2022/08/15 04:11:06;;;;;;;10.82;7.07;;;21.90;70.30;;;;;;5002175;28;20181;-85
2022/08/15 04:13:33;;;;;;;11.65;8.15;;;21.80;70.70;;;;;;4995954;28;21157;-85
2022/08/15 04:16:00;;;;;;;11.85;7.65;;;21.80;70.80;;;;;;4990146;28;20477;-85
2022/08/15 04:18:27;;;;;;;10.40;7.15;;;21.70;71.10;;;;;;4994716;28;20118;-83
2022/08/15 04:20:55;;;;;;;11.07;7.60;;;21.70;71.00;;;;;;4996996;28;20397;-85
2022/08/15 04:23:22;;;;;;;12.65;7.15;;;21.70;70.90;;;;;;4995952;28;20044;-84
2022/08/15 04:25:48;;;;;;;10.68;7.50;;;21.70;71.20;;;;;;5006756;28;20098;-86
2022/08/15 04:28:17;;;;;;;13.88;8.13;;;21.70;71.40;;;;;;4990636;28;20033;-85
2022/08/15 04:30:44;;;;;;;10.18;7.68;;;21.60;71.60;;;;;;4992536;28;20022;-85
2022/08/15 04:33:14;;;;;;;11.88;7.60;;;21.70;71.40;;;;;;4993647;28;20045;-86
2022/08/15 04:35:43;;;;;;;11.52;8.05;;;21.70;71.50;;;;;;4993608;28;20040;-83
2022/08/15 04:38:09;;;;;;;12.82;7.32;;;21.60;71.60;;;;;;4993387;28;20568;-85
2022/08/15 04:40:35;;;;;;;10.68;7.47;;;21.60;71.70;;;;;;4991934;28;20030;-85
2022/08/15 04:43:01;;;;;;;10.63;7.72;;;21.70;71.80;;;;;;4993821;28;20037;-82
2022/08/15 04:45:30;;;;;;;12.60;7.90;;;21.70;71.70;;;;;;4991956;28;20342;-86
2022/08/15 04:47:56;;;;;;;12.13;7.95;;;21.70;71.60;;;;;;5024296;28;20144;-84
2022/08/15 04:50:21;;;;;;;11.52;7.28;;;21.70;71.50;;;;;;4993791;28;20125;-85
2022/08/15 04:52:52;;;;;;;13.18;7.72;;;21.70;71.60;;;;;;4994211;28;20072;-85
2022/08/15 04:55:19;;;;;;;12.70;7.78;;;21.70;71.80;;;;;;4992594;28;20062;-85
2022/08/15 04:57:45;;;;;;;13.65;8.32;;;21.70;72.10;;;;;;4990732;28;20113;-85
2022/08/15 05:00:14;;;;;;;12.27;8.70;;;21.70;72.10;;;;;;4992139;28;20073;-85
2022/08/15 05:02:40;;;;;;;10.05;7.45;;;21.70;71.90;;;;;;4989990;28;20153;-85
2022/08/15 05:05:08;;;;;;;19.20;9.02;;;21.70;71.90;;;;;;4990021;28;20034;-85
2022/08/15 05:07:34;;;;;;;10.88;7.43;;;21.70;72.10;;;;;;4993527;28;20118;-85
2022/08/15 05:10:01;;;;;;;11.07;7.40;;;21.80;71.70;;;;;;5021526;28;20053;-82
2022/08/15 05:12:28;;;;;;;11.45;7.65;;;21.80;71.60;;;;;;4996011;28;20113;-85
2022/08/15 05:14:56;;;;;;;12.35;8.02;;;21.90;71.50;;;;;;4994830;28;20033;-85
2022/08/15 05:17:21;;;;;;;12.32;7.93;;;21.90;71.50;;;;;;5000569;28;20044;-85
2022/08/15 05:19:48;;;;;;;10.68;7.72;;;21.80;71.50;;;;;;4995103;28;20045;-85
2022/08/15 05:22:16;;;;;;;14.23;8.23;;;21.90;71.50;;;;;;4995666;28;20061;-83
2022/08/15 05:24:44;;;;;;;11.45;7.32;;;21.90;71.80;;;;;;4995038;28;20038;-85
2022/08/15 05:27:10;;;;;;;9.95;6.90;;;21.90;71.70;;;;;;4992365;28;20056;-85
2022/08/15 05:29:38;;;;;;;11.00;7.20;;;22.00;71.70;;;;;;4997286;28;20433;-79
2022/08/15 05:32:06;;;;;;;13.98;6.70;;;22.00;71.60;;;;;;4992092;28;20116;-79
2022/08/15 05:34:32;;;;;;;16.52;7.22;;;22.30;72.50;;;;;;4991393;28;20041;-79
2022/08/15 05:36:58;;;;;;;14.75;6.75;;;22.60;71.30;;;;;;5019648;28;20026;-79
2022/08/15 05:39:27;;;;;;;13.77;7.03;;;22.70;70.30;;;;;;4993368;28;20520;-81
2022/08/15 05:42:23;;;;;;;9.98;6.55;;;22.90;69.40;;;;;;4988235;28;20038;-81
2022/08/15 05:45:30;;;;;;;12.77;6.50;;;23.00;68.60;;;;;;4991743;28;20479;-83
2022/08/15 05:48:12;;;;;;;12.30;7.18;;;23.00;68.80;;;;;;4994753;28;20030;-84
2022/08/15 05:50:52;;;;;;;15.45;7.70;;;23.10;68.30;;;;;;5007126;28;20038;-85
2022/08/15 05:53:29;;;;;;;11.38;7.35;;;23.00;68.80;;;;;;4995282;28;20153;-85
2022/08/15 05:56:17;;;;;;;10.75;7.47;;;23.00;68.40;;;;;;4996676;28;20030;-84
2022/08/15 05:58:52;;;;;;;12.15;8.18;;;22.80;69.40;;;;;;4998655;28;20520;-84
2022/08/15 06:01:30;;;;;;;13.70;8.38;;;22.90;69.20;;;;;;5000936;28;20514;-83
2022/08/15 06:04:02;;;;;;;11.43;7.05;;;22.90;69.20;;;;;;5008472;28;20071;-88
2022/08/15 06:06:32;;;;;;;12.02;8.02;;;22.90;69.20;;;;;;5009818;28;20042;-87
2022/08/15 06:09:30;;;;;;;11.15;8.02;;;23.00;68.70;;;;;;5017050;28;20482;-89
2022/08/15 06:11:59;;;;;;;11.82;6.88;;;23.00;68.50;;;;;;5010652;28;21577;-90
2022/08/15 06:14:33;;;;;;;10.55;7.25;;;23.10;68.30;;;;;;5015168;28;20041;-88
2022/08/15 06:17:19;;;;;;;11.05;6.97;;;23.10;68.20;;;;;;5014848;28;20053;-85
2022/08/15 06:19:48;;;;;;;14.35;8.45;;;23.20;68.00;;;;;;5016273;28;20491;-86
2022/08/15 06:22:33;;;;;;;12.95;7.95;;;23.30;67.80;;;;;;5028508;28;20038;-86
2022/08/15 06:25:14;;;;;;;;;;;23.30;68.20;;;;;;5009348;28;20443;-87
2022/08/15 06:27:48;;;;;;;13.00;8.02;;;23.40;67.20;;;;;;5028851;28;20259;-85
2022/08/15 06:30:19;;;;;;;13.23;7.85;;;23.50;67.30;;;;;;5008260;28;20159;-86
2022/08/15 06:33:06;;;;;;;11.10;6.93;;;23.60;67.00;;;;;;5011205;28;20030;-82
2022/08/15 06:35:59;;;;;;;12.18;7.63;;;23.60;66.80;;;;;;4997714;28;20046;-81
2022/08/15 06:38:48;;;;;;;12.10;7.72;;;23.70;66.20;;;;;;5003862;28;20088;-85
2022/08/15 06:41:26;;;;;;;10.70;7.60;;;23.70;66.30;;;;;;5006965;28;20438;-79
2022/08/15 06:43:53;;;;;;;15.10;8.95;;;23.60;66.80;;;;;;5006771;28;20030;-88
2022/08/15 06:46:21;;;;;;;11.88;8.98;;;23.60;66.60;;;;;;5008720;28;20057;-88
2022/08/15 06:48:48;;;;;;;15.93;9.45;;;23.40;67.00;;;;;;5011665;28;20043;-88
2022/08/15 06:51:15;;;;;;;13.63;8.20;;;23.50;67.00;;;;;;5012180;28;20034;-82
2022/08/15 06:53:46;;;;;;;12.48;8.40;;;23.50;68.10;;;;;;5013515;28;20041;-82
2022/08/15 06:56:17;;;;;;;14.95;8.38;;;23.60;67.10;;;;;;5002989;28;20041;-75
2022/08/15 06:58:45;;;;;;;11.90;8.27;;;23.90;66.10;;;;;;5006018;28;20042;-72
2022/08/15 07:01:41;;;;;;;13.38;8.40;;;24.10;65.20;;;;;;5008514;28;20052;-73
2022/08/15 07:04:19;;;;;;;14.63;9.77;;;24.50;64.20;;;;;;5003331;28;20045;-75
2022/08/15 07:07:00;;;;;;;13.52;8.13;;;24.70;63.60;;;;;;5011284;28;20654;-73
2022/08/15 07:09:54;;;;;;;12.65;7.75;;;24.80;63.20;;;;;;5016343;28;20398;-75
2022/08/15 07:12:49;;;;;;;13.85;8.18;;;25.00;62.50;;;;;;5000431;28;20091;-75
2022/08/15 07:15:28;;;;;;;;;;;25.20;61.50;;;;;;5018202;28;20495;-73
2022/08/15 07:18:03;;;;;;;11.50;7.70;;;25.30;61.20;;;;;;5016716;28;19979;-73
2022/08/15 07:20:28;;;;;;;12.60;7.18;;;25.40;60.70;;;;;;5003270;28;20038;-72
2022/08/15 07:22:54;;;;;;;11.68;7.35;;;25.50;60.70;;;;;;5009365;28;20107;-74
2022/08/15 07:25:28;;;;;;;10.85;7.22;;;25.60;60.10;;;;;;5006740;28;20584;-74
2022/08/15 07:27:58;;;;;;;9.68;7.05;;;25.60;59.90;;;;;;5016406;28;20033;-73
2022/08/15 07:30:47;;;;;;;10.38;7.18;;;25.70;59.50;;;;;;5006377;28;20047;-73
2022/08/15 07:33:39;;;;;;;10.60;6.47;;;25.90;59.50;;;;;;5010611;28;20037;-74
2022/08/15 07:36:27;;;;;;;12.52;6.85;;;26.10;57.90;;;;;;5007805;28;20096;-73
2022/08/15 07:38:54;;;;;;;9.25;5.65;;;26.20;57.90;;;;;;5005692;28;20045;-73
2022/08/15 07:41:25;;;;;;;9.77;5.95;;;26.40;56.50;;;;;;5007171;28;20556;-75
2022/08/15 07:44:00;;;;;;;10.43;6.18;;;26.40;56.30;;;;;;5010973;28;20029;-73
2022/08/15 07:46:38;;;;;;;8.95;5.43;;;26.50;56.60;;;;;;5018370;28;20029;-75
2022/08/15 07:49:20;;;;;;;9.38;6.13;;;26.60;56.60;;;;;;5005415;28;20508;-73
2022/08/15 07:51:59;;;;;;;11.75;5.82;;;26.70;55.60;;;;;;5013073;28;20053;-73
2022/08/15 07:54:32;;;;;;;11.00;5.63;;;26.70;55.40;;;;;;5010874;28;20044;-74
2022/08/15 07:57:01;;;;;;;8.68;5.80;;;27.00;55.20;;;;;;5009959;28;20048;-72
2022/08/15 07:59:33;;;;;;;11.52;6.18;;;26.80;55.10;;;;;;5008115;28;20624;-75
2022/08/15 08:02:20;;;;;;;9.15;5.82;;;26.80;55.50;;;;;;5013915;28;20091;-73
2022/08/15 08:04:47;;;;;;;10.30;5.93;;;27.00;55.00;;;;;;5012716;28;20120;-73
2022/08/15 08:07:31;;;;;;;7.13;5.18;;;27.00;55.30;;;;;;5003646;28;20481;-73
2022/08/15 08:10:18;;;;;;;10.57;5.32;;;27.30;54.00;;;;;;5016405;28;20444;-73
2022/08/15 08:13:04;;;;;;;9.80;6.03;;;27.20;53.70;;;;;;5010869;28;20054;-73
2022/08/15 08:15:38;;;;;;;7.82;4.85;;;27.10;54.40;;;;;;5010774;28;20048;-73
2022/08/15 08:18:26;;;;;;;8.55;5.20;;;27.00;54.90;;;;;;5009912;28;20576;-73
2022/08/15 08:21:06;;;;;;;9.10;5.10;;;27.30;54.20;;;;;;5004491;28;20046;-73
2022/08/15 08:23:43;;;;;;;9.02;4.72;;;27.70;52.80;;;;;;5013443;28;20054;-73
2022/08/15 08:26:36;;;;;;;9.60;4.97;;;27.90;51.70;;;;;;5017224;28;20041;-74
2022/08/15 08:29:30;;;;;;;8.50;4.70;;;28.10;51.90;;;;;;5005053;28;20037;-75
2022/08/15 08:32:02;;;;;;;;;;;28.30;51.30;;;;;;5010525;28;20037;-73
2022/08/15 08:34:53;;;;;;;7.80;5.25;;;28.60;50.30;;;;;;5011834;28;19917;-74
2022/08/15 08:37:41;;;;;;;9.50;5.03;;;28.60;50.50;;;;;;5008902;28;20737;-74
2022/08/15 08:43:50;;;;;;;9.68;5.20;;;28.70;48.90;;;;;;5011284;28;20394;-73
2022/08/15 08:46:37;;;;;;;7.90;4.95;;;28.50;49.60;;;;;;5006199;28;20096;-73
2022/08/15 08:49:03;;;;;;;9.13;5.32;;;28.10;50.00;;;;;;5003892;28;20382;-76
2022/08/15 08:51:45;;;;;;;9.35;4.82;;;28.10;50.30;;;;;;5006605;28;20040;-73
2022/08/15 08:54:17;;;;;;;7.30;5.28;;;28.20;50.50;;;;;;5011216;28;20034;-74
2022/08/15 08:56:48;;;;;;;9.32;4.70;;;28.10;50.60;;;;;;5010174;28;20176;-73
2022/08/15 08:59:25;;;;;;;9.43;4.93;;;28.50;50.00;;;;;;5005991;28;20088;-73
2022/08/15 09:02:14;;;;;;;8.85;5.15;;;28.70;49.00;;;;;;5024924;28;20500;-74
2022/08/15 09:04:46;;;;;;;10.35;5.50;;;28.60;49.00;;;;;;5014026;28;20044;-74
2022/08/15 09:07:24;;;;;;;9.02;5.50;;;28.70;49.10;;;;;;5014632;28;20103;-73
2022/08/15 09:09:51;;;;;;;9.55;5.68;;;28.70;48.50;;;;;;5010303;28;20386;-73
2022/08/15 09:15:16;;;;;;;8.18;5.57;;;28.30;49.90;;;;;;5009541;28;20060;-74
2022/08/15 09:17:46;;;;;;;8.77;5.28;;;28.30;49.60;;;;;;5008782;28;20477;-74
2022/08/15 09:20:16;;;;;;;9.93;5.57;;;28.30;49.10;;;;;;5013845;28;20371;-74
2022/08/15 09:22:41;;;;;;;10.93;5.57;;;28.20;50.20;;;;;;5007545;28;20092;-74
2022/08/15 09:25:08;;;;;;;12.10;6.07;;;28.50;49.50;;;;;;5014516;28;20046;-74
2022/08/15 09:27:55;;;;;;;10.25;6.18;;;28.50;49.40;;;;;;5008659;28;20065;-74
2022/08/15 09:30:21;;;;;;;11.60;6.38;;;28.90;48.50;;;;;;5008676;28;20045;-76
2022/08/15 09:33:19;;;;;;;9.65;6.00;;;29.00;48.60;;;;;;5015238;28;20329;-74
2022/08/15 09:36:13;;;;;;;10.02;5.88;;;29.00;48.00;;;;;;5022752;28;20034;-74
2022/08/15 09:38:39;;;;;;;10.32;5.93;;;28.90;48.30;;;;;;5003742;28;20125;-73
2022/08/15 09:41:23;;;;;;;10.77;6.78;;;28.60;49.50;;;;;;5007631;28;20116;-75
2022/08/15 09:43:55;;;;;;;12.93;6.22;;;28.60;49.90;;;;;;5004647;28;20060;-76
2022/08/15 09:46:29;;;;;;;8.90;6.30;;;28.80;49.80;;;;;;5004451;28;20045;-74
2022/08/15 09:48:58;;;;;;;13.02;6.82;;;29.00;49.20;;;;;;5012996;28;21107;-73
2022/08/15 09:51:50;;;;;;;10.95;6.50;;;28.70;49.20;;;;;;5005594;28;20034;-73
2022/08/15 09:54:21;;;;;;;10.07;6.57;;;28.60;49.70;;;;;;5002174;28;20049;-74
2022/08/15 09:56:48;;;;;;;10.52;6.10;;;28.50;49.60;;;;;;5011442;28;20083;-73
2022/08/15 09:59:21;;;;;;;32.80;29.20;;;28.40;50.40;;;;;;5003807;28;20119;-73
2022/08/15 10:01:51;;;;;;;9.15;6.47;;;28.40;49.80;;;;;;5012777;28;20095;-75
2022/08/15 10:04:20;;;;;;;10.00;5.75;;;28.50;50.40;;;;;;5006073;28;20095;-73
2022/08/15 10:07:01;;;;;;;12.65;6.97;;;28.60;50.20;;;;;;5007811;28;20046;-75
2022/08/15 10:09:32;;;;;;;11.07;6.57;;;28.70;49.10;;;;;;5013624;28;20034;-75
2022/08/15 10:12:21;;;;;;;10.27;6.18;;;28.60;49.20;;;;;;5010927;28;20494;-75
2022/08/15 10:14:52;;;;;;;9.68;6.55;;;28.80;49.30;;;;;;5011886;28;20344;-74
2022/08/15 10:17:25;;;;;;;11.52;6.97;;;28.70;49.10;;;;;;5004230;28;20029;-74
2022/08/15 10:19:51;;;;;;;8.50;6.13;;;28.90;48.90;;;;;;5010859;28;20122;-74
2022/08/15 10:22:23;;;;;;;12.82;6.50;;;29.10;48.30;;;;;;5008904;28;20076;-73
2022/08/15 10:25:26;;;;;;;10.25;6.63;;;29.30;47.60;;;;;;5013108;28;20038;-76
2022/08/15 10:28:06;;;;;;;9.13;6.60;;;29.20;48.20;;;;;;5004185;28;20045;-73
2022/08/15 10:30:38;;;;;;;11.82;6.28;;;28.90;48.10;;;;;;5009121;28;20045;-73
2022/08/15 10:33:30;;;;;;;10.48;6.63;;;28.80;48.40;;;;;;5001042;28;20238;-72
2022/08/15 10:36:05;;;;;;;10.82;6.80;;;28.90;48.10;;;;;;5000010;28;20050;-72
2022/08/15 10:38:32;;;;;;;14.32;6.57;;;28.70;48.90;;;;;;5000142;28;20486;-74
2022/08/15 10:41:00;;;;;;;12.77;6.75;;;28.60;49.20;;;;;;5000882;28;20030;-72
2022/08/15 10:44:01;;;;;;;9.90;7.00;;;28.40;49.60;;;;;;5008563;28;20124;-74
2022/08/15 10:46:34;;;;;;;9.57;6.63;;;28.30;50.40;;;;;;4991439;28;20372;-74
2022/08/15 10:49:27;;;;;;;13.07;6.50;;;27.90;51.60;;;;;;5006029;28;20773;-72
2022/08/15 10:52:01;;;;;;;10.25;7.15;;;28.00;51.40;;;;;;5002450;28;20072;-71
2022/08/15 10:54:50;;;;;;;10.52;7.50;;;28.00;50.90;;;;;;5001631;28;20046;-75
2022/08/15 10:57:19;;;;;;;11.10;6.82;;;28.00;50.80;;;;;;5001221;28;20084;-71
2022/08/15 10:59:51;;;;;;;12.23;7.78;;;28.10;50.90;;;;;;5011046;28;20049;-72
2022/08/15 11:02:38;;;;;;;9.43;7.07;;;28.30;50.50;;;;;;5006517;28;20078;-72
2022/08/15 11:05:09;;;;;;;11.55;7.63;;;28.10;50.70;;;;;;5008406;28;20034;-73
2022/08/15 11:07:36;;;;;;;9.68;7.22;;;28.20;50.80;;;;;;5008896;28;20089;-71
2022/08/15 11:10:12;;;;;;;11.50;7.47;;;28.10;50.70;;;;;;5016932;28;20085;-72
2022/08/15 11:12:43;;;;;;;13.45;8.18;;;28.10;50.70;;;;;;5011858;28;20057;-71
2022/08/15 11:15:23;;;;;;;16.23;8.27;;;28.10;51.40;;;;;;5006643;28;20048;-73
2022/08/15 11:17:57;;;;;;;11.77;7.55;;;28.10;51.80;;;;;;5014758;28;20038;-72
2022/08/15 11:20:34;;;;;;;11.65;8.75;;;27.80;52.80;;;;;;5006942;28;20505;-71
2022/08/15 11:23:00;;;;;;;11.50;7.70;;;27.80;54.70;;;;;;5004862;28;20133;-72
2022/08/15 11:25:32;;;;;;;11.07;7.22;;;27.90;53.50;;;;;;5009901;28;20030;-75
2022/08/15 11:28:10;;;;;;;12.80;7.88;;;28.00;52.10;;;;;;5020683;28;20317;-71
2022/08/15 11:30:38;;;;;;;10.20;7.00;;;28.10;51.30;;;;;;5007624;28;20030;-71
2022/08/15 11:33:40;;;;;;;13.15;7.70;;;28.20;51.90;;;;;;5008190;28;20091;-71
2022/08/15 11:36:11;;;;;;;13.07;8.13;;;28.40;51.00;;;;;;5008414;28;20061;-72
2022/08/15 11:38:42;;;;;;;11.95;6.72;;;28.50;49.80;;;;;;5013762;28;20045;-72
2022/08/15 11:41:08;;;;;;;13.23;7.55;;;28.60;49.30;;;;;;5009915;28;20309;-71
2022/08/15 11:43:34;;;;;;;14.82;7.45;;;28.60;49.10;;;;;;5012058;28;20121;-72
2022/08/15 11:46:00;;;;;;;10.63;7.40;;;28.70;48.70;;;;;;5010891;28;20209;-72
2022/08/15 11:48:34;;;;;;;12.52;6.55;;;28.90;48.40;;;;;;5010338;28;20038;-75
2022/08/15 11:51:13;;;;;;;8.35;6.88;;;29.00;47.90;;;;;;5005829;28;20030;-74
2022/08/15 11:54:00;;;;;;;10.82;6.38;;;29.00;47.60;;;;;;5005360;28;20457;-72
2022/08/15 11:56:43;;;;;;;9.50;6.10;;;29.10;47.80;;;;;;5001705;28;20033;-74
2022/08/15 11:59:25;;;;;;;11.55;6.50;;;29.40;46.60;;;;;;5006862;28;20110;-74
2022/08/15 12:02:14;;;;;;;10.25;6.60;;;29.70;45.80;;;;;;5011324;28;20152;-72
2022/08/15 12:04:45;;;;;;;10.60;6.68;;;30.10;45.40;;;;;;5008725;28;20478;-71
2022/08/15 12:07:23;;;;;;;10.77;6.80;;;30.30;44.10;;;;;;5009048;28;20496;-71
2022/08/15 12:10:01;;;;;;;12.50;6.60;;;30.30;44.20;;;;;;5018026;28;20045;-73
2022/08/15 12:12:49;;;;;;;10.00;6.25;;;30.10;44.00;;;;;;5008964;28;20581;-72
2022/08/15 12:15:39;;;;;;;16.98;6.07;;;30.10;44.30;;;;;;5005270;28;20362;-71
2022/08/15 12:18:24;;;;;;;10.82;6.10;;;30.20;43.50;;;;;;5010003;28;20037;-72
2022/08/15 12:20:55;;;;;;;9.93;6.10;;;30.30;43.20;;;;;;5009881;28;20042;-74
2022/08/15 12:23:51;;;;;;;10.60;5.90;;;30.40;44.20;;;;;;5009387;28;20120;-72
2022/08/15 12:26:19;;;;;;;9.77;5.90;;;30.40;43.20;;;;;;5003679;28;20046;-73
2022/08/15 12:28:45;;;;;;;10.55;6.18;;;30.10;43.70;;;;;;5004834;28;20084;-73
2022/08/15 12:31:21;;;;;;;10.55;5.57;;;30.10;44.30;;;;;;5014454;28;20033;-71
2022/08/15 12:33:49;;;;;;;10.48;5.72;;;30.30;43.30;;;;;;5002049;28;20038;-75
2022/08/15 12:36:15;;;;;;;11.57;5.55;;;30.10;43.40;;;;;;4998832;28;20470;-74
2022/08/15 12:38:41;;;;;;;8.80;5.68;;;30.10;43.60;;;;;;5004270;28;20486;-74
2022/08/15 12:41:08;;;;;;;9.38;5.60;;;30.20;42.90;;;;;;4999502;28;20030;-74
2022/08/15 12:43:35;;;;;;;12.73;6.10;;;30.00;43.60;;;;;;5005606;28;20034;-74
2022/08/15 12:46:02;;;;;;;8.30;5.07;;;30.00;43.40;;;;;;5002066;28;20125;-75
2022/08/15 12:48:33;;;;;;;10.88;6.32;;;30.40;42.90;;;;;;5004726;28;20041;-74
2022/08/15 12:51:01;;;;;;;11.88;5.40;;;30.60;42.50;;;;;;4998451;28;20147;-75
2022/08/15 12:53:27;;;;;;;10.38;5.75;;;30.60;41.90;;;;;;4997527;28;20085;-74
2022/08/15 12:55:53;;;;;;;8.32;5.18;;;30.70;41.80;;;;;;4988072;28;20041;-73
2022/08/15 12:58:22;;;;;;;9.48;5.13;;;30.90;41.90;;;;;;4999003;28;20029;-72
2022/08/15 13:00:51;;;;;;;8.25;5.22;;;31.00;40.70;;;;;;4998096;28;20165;-73
2022/08/15 13:03:20;;;;;;;8.82;5.20;;;31.10;41.00;;;;;;5007963;28;20455;-74
2022/08/15 13:05:53;;;;;;;10.70;5.25;;;31.10;39.10;;;;;;4998827;28;20566;-74
2022/08/15 13:08:19;;;;;;;11.88;5.00;;;31.00;39.00;;;;;;4991812;28;20615;-73
2022/08/15 13:10:45;;;;;;;7.85;4.78;;;30.60;39.70;;;;;;4987895;28;20038;-73
2022/08/15 13:13:12;;;;;;;10.82;5.38;;;30.80;39.50;;;;;;4991284;28;20042;-73
2022/08/15 13:15:38;;;;;;;9.52;4.78;;;30.90;38.80;;;;;;4990504;28;20035;-72
2022/08/15 13:18:05;;;;;;;8.63;4.60;;;30.90;38.70;;;;;;4988790;28;20140;-73